Latest Weather Observations for Giles*

IDW60801

Issued at 8:05 pm WST Wednesday 1 October 2014 (issued every 30 minutes, with the page automatically refreshed every 10 minutes)

About weather observations | Map of weather stations | Latest weather observations for WA | Other Formats
Station Details ID: 013017 Name: GILES METEOROLOGICAL OFFICE Lat: -25.03 Lon: 128.30 Height: 598.0 m
Data from the previous 72 hours. | See also: Recent months at Giles*

* Giles observations are collected in the South Australia time zone, which includes daylight saving in the summer period. Therefore, Rain since 9am value is with respect to South Australia local time.

Date/Time
WST
Temp
°C
App
Temp
°C
Dew
Point
Rel
Hum
%
Delta-T
°C
Wind Press
QNH
hPa
Press
MSL
hPa
Rain
since 9 am
mm
Dir
 
Spd
km/h
Gust
km/h
Spd
kts
Gust
kts
01/08:00pm 24.8 20.1 -1.5 17 12.1 E 13 17 7 9 1019.7 - 0.0
01/07:30pm 25.5 21.4 -0.3 18 12.2 ENE 11 15 6 8 1019.7 1016.3 0.0
01/07:00pm 26.5 21.9 -1.3 16 13.0 E 13 15 7 8 1019.3 - 0.0
01/06:30pm 27.8 23.1 -2.0 14 13.9 E 13 17 7 9 1018.8 - 0.0
01/06:00pm 29.0 24.2 -2.5 12 14.7 E 13 19 7 10 1018.5 - 0.0
01/05:30pm 30.2 24.5 -3.5 11 15.6 E 17 22 9 12 1018.1 - 0.0
01/05:00pm 31.4 25.3 -4.0 10 16.4 E 19 26 10 14 1017.8 - 0.0
01/04:30pm 32.0 25.2 -4.9 9 16.9 E 22 33 12 18 1017.6 1014.2 0.0
01/04:00pm 32.5 26.0 -5.5 8 17.3 E 20 32 11 17 1017.5 - 0.0
01/03:30pm 32.8 27.0 -4.5 9 17.3 E 17 24 9 13 1017.5 - 0.0
01/03:00pm 33.1 27.4 -4.0 9 17.4 E 17 22 9 12 1017.4 - 0.0
01/02:30pm 33.0 26.6 -4.9 8 17.5 ENE 20 28 11 15 1017.6 - 0.0
01/02:00pm 33.3 27.0 -3.9 9 17.5 E 20 33 11 18 1017.9 - 0.0
01/01:30pm 33.4 27.0 -4.7 8 17.7 E 20 41 11 22 1018.2 1014.8 0.0
01/01:00pm 32.5 25.8 -3.8 9 17.0 ESE 22 35 12 19 1018.6 - 0.0
01/12:30pm 32.2 25.1 -4.8 9 17.0 E 24 28 13 15 1019.3 - 0.0
01/12:00pm 31.9 25.3 -3.6 10 16.6 E 22 33 12 18 1019.7 - 0.0
01/11:30am 31.8 25.2 -2.9 10 16.4 E 22 41 12 22 1020.2 - 0.0
01/11:00am 30.7 23.2 -4.2 10 16.0 E 26 39 14 21 1020.6 - 0.0
01/10:30am 30.2 21.8 -2.6 12 15.4 ESE 32 46 17 25 1021.0 1017.6 0.0
01/10:00am 29.0 21.0 -2.1 13 14.6 ESE 30 43 16 23 1021.4 - 0.0
01/09:30am 27.3 20.2 -1.1 15 13.4 E 26 41 14 22 1021.8 - 0.0
01/09:00am 26.3 18.5 -0.6 17 12.7 ESE 30 43 16 23 1022.5 - 0.0
01/08:30am 25.2 17.4 -0.7 18 12.1 ESE 30 43 16 23 1022.8 - 0.0
01/08:00am 24.6 18.1 0.4 20 11.5 ESE 24 33 13 18 1022.8 - 0.0
01/07:30am 23.3 16.5 0.7 22 10.7 SE 26 37 14 20 1022.5 1019.2 0.0
01/07:00am 21.4 14.9 0.5 25 9.7 SE 24 33 13 18 1022.5 - 0.0
01/06:30am 20.2 14.4 0.0 26 9.2 SSE 20 28 11 15 1022.4 - 0.0
01/06:00am 19.4 13.7 -0.4 26 8.9 SSE 19 26 10 14 1022.0 - 0.0
01/05:30am 18.6 12.3 -1.2 26 8.7 SE 22 30 12 16 1021.5 - 0.0
01/05:00am 18.8 12.4 -1.6 25 8.9 ESE 22 28 12 15 1021.2 - 0.0
01/04:30am 18.3 12.5 -1.8 25 8.7 SE 19 24 10 13 1020.8 1017.5 0.0
01/04:00am 18.8 12.9 -2.0 24 9.0 ESE 19 24 10 13 1020.5 - 0.0
01/03:30am 18.7 13.2 -2.2 24 9.0 SE 17 20 9 11 1020.1 - 0.0
01/03:00am 18.8 13.3 -2.4 23 9.1 ESE 17 22 9 12 1019.8 - 0.0
01/02:30am 19.7 13.8 -2.5 22 9.6 SE 19 22 10 12 1019.6 - 0.0
01/02:00am 20.5 14.3 -3.3 20 10.2 SE 20 28 11 15 1019.4 - 0.0
01/01:30am 21.2 15.0 -3.5 19 10.6 SE 20 28 11 15 1019.4 1016.0 0.0
01/01:00am 22.0 15.3 -4.3 17 11.2 SE 22 30 12 16 1019.2 - 0.0
01/12:30am 22.0 15.8 -4.8 16 11.3 SE 19 26 10 14 1019.4 - 0.0
01/12:00am 22.6 16.3 -5.7 14 11.8 SE 19 26 10 14 1019.5 - 0.0
 
Date/Time
WST
Temp
°C
App
Temp
°C
Dew
Point
Rel
Hum
%
Delta-T
°C
Wind Press
QNH
hPa
Press
MSL
hPa
Rain
since 9 am
mm
Dir
 
Spd
km/h
Gust
km/h
Spd
kts
Gust
kts
30/11:30pm 23.1 16.5 -6.5 13 12.2 SE 20 32 11 17 1019.4 - 0.0
30/11:00pm 23.2 17.2 -6.2 13 12.2 SSE 17 22 9 12 1019.3 - 0.0
30/10:30pm 24.3 17.3 -7.4 11 13.0 SSE 22 32 12 17 1019.2 1015.8 0.0
30/10:00pm 24.5 17.9 -7.3 11 13.1 SSE 20 30 11 16 1018.9 - 0.0
30/09:30pm 25.3 18.0 -6.6 11 13.4 SSE 24 33 13 18 1018.8 - 0.0
30/09:00pm 25.5 19.3 -4.9 13 13.2 SSE 19 26 10 14 1018.8 - 0.0
30/08:30pm 25.5 20.2 -3.8 14 13.0 SSE 15 19 8 10 1018.8 - 0.0
30/08:00pm 25.1 19.9 -3.0 15 12.6 SSE 15 17 8 9 1018.7 - 0.0
30/07:30pm 25.7 20.4 -3.3 14 13.0 S 15 17 8 9 1018.4 1016.1 0.0
30/07:00pm 26.6 21.3 -3.8 13 13.6 S 15 17 8 9 1018.1 - 0.0
30/06:30pm 26.9 22.1 -2.9 14 13.6 S 13 15 7 8 1017.7 - 0.0
30/06:00pm 28.1 23.6 -3.5 12 14.4 S 11 17 6 9 1017.4 - 0.0
30/05:30pm 29.7 25.2 -3.4 11 15.3 S 11 15 6 8 1016.8 - 0.0
30/05:00pm 31.8 26.8 -4.3 9 16.7 S 13 22 7 12 1016.4 - 0.0
30/04:30pm 32.5 28.1 -5.4 8 17.3 SE 9 15 5 8 1016.2 1013.8 0.0
30/04:00pm 33.1 26.8 -6.3 7 17.8 S 19 26 10 14 1016.0 - 0.0
30/03:30pm 33.5 27.2 -5.5 8 17.9 SSE 19 30 10 16 1015.9 - 0.0
30/03:00pm 33.7 29.3 -6.0 7 18.1 WSW 9 19 5 10 1015.8 - 0.0
30/02:30pm 33.9 28.9 -4.6 8 18.0 S 13 20 7 11 1015.8 - 0.0
30/02:00pm 33.2 28.7 -3.6 9 17.4 ESE 11 19 6 10 1015.9 - 0.0
30/01:30pm 33.2 27.8 -4.8 8 17.6 WSW 15 26 8 14 1016.2 1013.8 0.0
30/01:00pm 33.9 28.0 -5.9 7 18.2 S 17 28 9 15 1016.5 - 0.0
30/12:30pm 33.4 26.9 -5.9 7 17.9 SSE 20 30 11 16 1016.7 - 0.0
30/12:00pm 32.3 27.7 -3.9 9 16.9 SSW 11 20 6 11 1017.1 - 0.0
30/11:30am 32.4 26.2 -4.7 9 17.1 S 19 30 10 16 1017.6 - 0.0
30/11:00am 32.4 26.2 -5.3 8 17.2 SSE 19 43 10 23 1018.0 - 0.0
30/10:30am 31.9 24.7 -5.2 9 16.9 SE 24 41 13 22 1018.3 1016.0 0.0
30/10:00am 31.3 24.5 -4.9 9 16.5 SE 22 37 12 20 1018.5 - 0.0
30/09:30am 31.2 23.7 -4.7 9 16.4 SE 26 43 14 23 1018.6 - 0.0
30/09:00am 30.4 22.5 -4.5 10 15.9 SE 28 39 15 21 1018.9 - 0.0
30/08:30am 29.5 22.1 -3.6 11 15.2 SE 26 46 14 25 1019.0 - 0.0
30/08:00am 28.5 20.4 -3.4 12 14.6 SE 30 43 16 23 1019.0 - 0.0
30/07:30am 27.5 19.9 -2.3 14 13.8 SE 28 37 15 20 1018.9 1016.6 0.0
30/07:00am 26.0 19.1 -2.5 15 13.0 SE 24 37 13 20 1018.7 - 0.0
30/06:30am 24.0 17.2 -2.1 17 11.8 SE 24 32 13 17 1018.3 - 0.0
30/06:00am 20.6 14.8 -1.4 22 9.8 SE 19 20 10 11 1018.0 - 0.0
30/05:30am 19.6 14.6 -1.1 24 9.2 ESE 15 19 8 10 1017.9 - 0.0
30/05:00am 18.3 14.6 0.1 29 8.2 ESE 9 11 5 6 1017.7 - 0.0
30/04:30am 18.5 13.2 -0.6 27 8.5 SE 17 19 9 10 1017.1 1014.8 0.0
30/04:00am 18.2 13.7 -0.1 29 8.2 SE 13 15 7 8 1016.9 - 0.0
30/03:30am 18.7 13.8 -0.6 27 8.6 SE 15 17 8 9 1016.5 - 0.0
30/03:00am 19.2 14.3 -0.7 26 8.9 ESE 15 19 8 10 1016.4 - 0.0
30/02:30am 20.5 15.6 -0.8 24 9.6 SE 15 19 8 10 1016.2 - 0.0
30/02:00am 20.7 15.8 -0.8 23 9.7 SE 15 19 8 10 1015.9 - 0.0
30/01:30am 22.3 16.9 -1.3 20 10.7 SSE 17 22 9 12 1015.8 1013.4 0.0
30/01:00am 22.1 16.3 -1.3 21 10.6 SSE 19 26 10 14 1015.9 - 0.0
30/12:30am 21.8 17.3 -0.4 22 10.2 SE 13 17 7 9 1016.2 - 0.0
30/12:00am 23.1 18.5 -0.8 20 11.0 SE 13 17 7 9 1016.3 - 0.0
 
Date/Time
WST
Temp
°C
App
Temp
°C
Dew
Point
Rel
Hum
%
Delta-T
°C
Wind Press
QNH
hPa
Press
MSL
hPa
Rain
since 9 am
mm
Dir
 
Spd
km/h
Gust
km/h
Spd
kts
Gust
kts
29/11:30pm 24.2 19.2 -1.2 18 11.7 SSE 15 20 8 11 1016.3 - 0.0
29/11:00pm 25.2 19.1 -2.2 16 12.5 S 20 30 11 16 1016.1 - 0.0
29/10:30pm 26.1 20.0 -2.7 15 13.1 S 20 26 11 14 1016.1 1013.7 0.0
29/10:00pm 25.3 20.6 -2.0 16 12.5 SSW 13 20 7 11 1016.0 - 0.0
29/09:30pm 26.0 24.7 4.0 24 11.3 CALM 0 0 0 0 1015.8 - 0.0
29/09:00pm 26.7 23.4 0.1 17 12.8 SSE 7 7 4 4 1015.9 - 0.0
29/08:30pm 27.2 23.6 0.4 17 13.0 SSE 9 9 5 5 1015.9 - 0.0
29/08:00pm 27.5 25.6 0.3 17 13.2 CALM 0 0 0 0 1015.9 - 0.0
29/07:30pm 28.0 24.9 0.3 16 13.5 S 6 6 3 3 1015.8 1013.4 0.0
29/07:00pm 28.3 25.4 2.5 19 13.1 SW 7 9 4 5 1015.4 - 0.0
29/06:30pm 28.9 25.6 0.0 15 14.1 WSW 7 9 4 5 1015.1 - 0.0
29/06:00pm 29.2 25.6 0.7 16 14.1 WSW 9 13 5 7 1014.7 - 0.0
29/05:30pm 30.0 26.8 0.6 15 14.6 WSW 7 11 4 6 1014.2 - 0.0
29/05:00pm 31.5 26.6 -3.1 10 16.3 W 13 20 7 11 1013.9 - 0.0
29/04:30pm 32.2 26.1 -4.0 9 16.9 W 19 30 10 16 1013.5 1011.2 0.0
29/04:00pm 32.6 26.3 -4.4 9 17.2 W 20 28 11 15 1013.3 - 0.0
29/03:30pm 33.0 26.9 -4.2 9 17.4 W 19 28 10 15 1013.0 - 0.0
29/03:00pm 34.1 27.6 -5.6 7 18.3 W 20 32 11 17 1012.9 - 0.0
29/02:30pm 33.5 25.6 -4.7 8 17.8 W 28 35 15 19 1012.8 - 0.0
29/02:00pm 33.9 27.7 -4.5 8 18.0 NW 19 24 10 13 1013.1 - 0.0
29/01:30pm 32.0 27.6 -2.6 10 16.5 SSE 11 19 6 10 1013.3 1010.9 0.0
29/01:00pm 33.4 26.7 -4.5 8 17.7 W 22 28 12 15 1013.6 - 0.0
29/12:30pm 32.7 28.4 -1.5 11 16.7 NW 11 24 6 13 1014.0 - 0.0
29/12:00pm 31.8 26.7 -2.2 11 16.3 WSW 15 24 8 13 1014.4 - 0.0
29/11:30am 31.8 27.6 -0.8 12 16.0 S 11 17 6 9 1015.0 - 0.0
29/11:00am 31.5 26.9 -1.2 12 15.9 WNW 13 22 7 12 1015.4 - 0.0
29/10:30am 31.7 26.1 -3.0 10 16.4 WNW 17 26 9 14 1015.8 1013.4 0.0
29/10:00am 31.5 27.5 -2.2 11 16.1 NNW 9 17 5 9 1016.1 - 0.0
29/09:30am 30.5 26.5 -2.1 12 15.5 SSE 9 19 5 10 1016.4 - 0.0
29/09:00am 30.0 25.2 -2.6 12 15.3 E 13 17 7 9 1016.6 - 0.0
29/08:30am 28.9 23.6 -0.9 14 14.3 E 17 20 9 11 1016.7 - 0.0
29/08:00am 27.9 23.3 -0.8 15 13.7 E 13 20 7 11 1016.8 - 0.0
29/07:30am 26.5 20.6 -2.1 15 13.2 E 19 26 10 14 1016.6 1014.3 0.0
29/07:00am 25.2 19.9 -0.9 18 12.2 E 17 24 9 13 1016.3 - 0.0
29/06:30am 23.5 17.6 -0.7 20 11.2 E 20 28 11 15 1016.0 - 0.0
29/06:00am 21.5 15.6 -0.6 23 10.1 E 20 28 11 15 1015.8 - -
29/05:30am 19.5 13.5 -1.3 24 9.2 E 20 26 11 14 1015.5 - 0.0
29/05:00am 19.2 13.3 -1.1 25 9.0 E 20 26 11 14 1015.5 - 0.0
29/04:30am 19.3 13.5 -1.3 25 9.1 E 19 24 10 13 1015.2 1012.9 0.0
29/04:00am 18.1 14.0 0.1 29 8.1 ESE 11 15 6 8 1015.0 - -
29/03:30am 18.0 12.8 -0.1 29 8.1 ESE 17 20 9 11 1014.7 - -
29/03:00am 18.8 13.9 -0.4 27 8.6 ESE 15 20 8 11 1014.5 - -
29/02:30am 18.8 13.5 -0.4 27 8.6 ESE 17 19 9 10 1014.5 - -
29/02:00am 18.9 14.1 0.5 29 8.4 ESE 15 19 8 10 1014.5 - -
29/01:30am 19.6 14.4 0.1 27 8.9 ESE 17 20 9 11 1014.6 1012.2 0.0
29/01:00am 20.1 14.9 -0.1 26 9.2 ESE 17 22 9 12 1014.9 - -
29/12:30am 20.6 15.4 0.2 25 9.4 ESE 17 22 9 12 1015.1 - -
29/12:00am 20.0 15.9 0.1 26 9.1 ESE 11 15 6 8 1015.4 - -
 
Date/Time
WST
Temp
°C
App
Temp
°C
Dew
Point
Rel
Hum
%
Delta-T
°C
Wind Press
QNH
hPa
Press
MSL
hPa
Rain
since 9 am
mm
Dir
 
Spd
km/h
Gust
km/h
Spd
kts
Gust
kts
28/11:30pm 21.0 16.6 0.2 25 9.6 SE 13 15 7 8 1015.7 - -
28/11:00pm 20.8 16.3 -0.6 24 9.7 SSE 13 17 7 9 1015.8 - -
28/10:30pm 21.8 16.7 -1.6 21 10.5 SSE 15 17 8 9 1016.0 1013.6 -
28/10:00pm 22.1 18.2 -1.4 20 10.6 SE 9 13 5 7 1016.1 - -
28/09:30pm 22.2 18.3 -1.5 20 10.7 SSE 9 13 5 7 1016.2 - -
28/09:00pm 23.0 18.7 -1.8 19 11.2 SE 11 13 6 7 1016.2 - -
28/08:30pm 23.1 20.1 1.1 23 10.5 ESE 6 9 3 5 1016.3 - -
28/08:00pm 24.3 20.1 -4.0 15 12.4 SSW 9 11 5 6 1016.0 - -
28/07:30pm 24.3 20.4 -1.8 17 11.9 S 9 11 5 6 1015.8 1013.4 0.0
28/07:00pm 26.0 21.0 -4.4 13 13.4 SW 13 13 7 7 1015.4 - -

Other Formats:

Comma delimited format used in spreadsheet applications
http://www.bom.gov.au/fwo/IDW60801/IDW60801.94461.axf

JavaScript Object Notation format (JSON) in row-major order
http://www.bom.gov.au/fwo/IDW60801/IDW60801.94461.json